createdAt,value
2022-10-17T00:00:59.286Z,101178.59
2022-10-17T00:03:26.318Z,101175.81
2022-10-17T00:05:53.488Z,101177.56
2022-10-17T00:08:20.765Z,101185.38
2022-10-17T00:11:05.237Z,101182.53
2022-10-17T00:16:05.859Z,101179.94
2022-10-17T00:18:32.959Z,101174.63
2022-10-17T00:20:59.993Z,101177.34
2022-10-17T00:23:30.545Z,101170.13
2022-10-17T00:26:05.874Z,101178.16
2022-10-17T00:28:33.444Z,101169.97
2022-10-17T00:31:04.693Z,101172.75
2022-10-17T00:33:33.661Z,101178.97
2022-10-17T00:36:14.251Z,101183.59
2022-10-17T00:38:43.776Z,101189.47
2022-10-17T00:41:14.337Z,101204.97
2022-10-17T00:44:04.440Z,101208.22
2022-10-17T00:46:36.800Z,101209.19
2022-10-17T00:49:09.850Z,101203.84
2022-10-17T00:51:56.279Z,101190.41
2022-10-17T00:54:39.548Z,101201.31
2022-10-17T00:57:07.211Z,101197.69
2022-10-17T00:59:36.048Z,101196.81
2022-10-17T01:02:13.620Z,101199.34
2022-10-17T01:04:44.021Z,101193.19
2022-10-17T01:07:11.347Z,101195.03
2022-10-17T01:09:39.875Z,101191.41
2022-10-17T01:12:33.266Z,101190.69
2022-10-17T01:15:43.285Z,101192.50
2022-10-17T01:18:38.663Z,101197.66
2022-10-17T01:21:31.414Z,101192.47
2022-10-17T01:24:31.258Z,101197.56
2022-10-17T01:27:18.184Z,101182.44
2022-10-17T01:30:10.860Z,101177.16
2022-10-17T01:32:45.659Z,101186.91
2022-10-17T01:35:51.314Z,101182.81
2022-10-17T01:38:40.291Z,101186.94
2022-10-17T01:41:41.371Z,101188.44
2022-10-17T01:44:34.814Z,101185.97
2022-10-17T01:47:10.817Z,101182.19
2022-10-17T01:49:40.934Z,101183.03
2022-10-17T01:52:17.229Z,101184.66
2022-10-17T01:54:52.667Z,101190.03
2022-10-17T01:57:32.113Z,101190.94
2022-10-17T02:00:00.701Z,101192.78
2022-10-17T02:02:28.366Z,101183.94
2022-10-17T02:04:57.394Z,101190.97
2022-10-17T02:07:24.437Z,101190.94
2022-10-17T02:09:51.453Z,101192.31
2022-10-17T02:12:39.867Z,101195.78
2022-10-17T02:15:12.869Z,101191.34
2022-10-17T02:18:15.885Z,101196.72
2022-10-17T02:20:58.466Z,101199.34
2022-10-17T02:24:04.333Z,101196.25
2022-10-17T02:26:41.050Z,101202.50
2022-10-17T02:29:23.157Z,101210.53
2022-10-17T02:32:11.898Z,101215.88
2022-10-17T02:34:46.778Z,101217.19
2022-10-17T02:37:18.434Z,101214.53
2022-10-17T02:39:47.261Z,101222.13
2022-10-17T02:42:15.671Z,101225.75
2022-10-17T02:44:45.630Z,101230.66
2022-10-17T02:47:59.776Z,101221.81
2022-10-17T02:51:09.713Z,101234.16
2022-10-17T02:53:55.569Z,101239.69
2022-10-17T02:56:24.497Z,101250.16
2022-10-17T02:58:57.406Z,101258.13
2022-10-17T03:01:25.205Z,101266.97
2022-10-17T03:04:03.947Z,101257.25
2022-10-17T03:06:30.877Z,101269.50
2022-10-17T03:08:57.786Z,101261.50
2022-10-17T03:11:24.718Z,101274.81
2022-10-17T03:13:51.644Z,101271.16
2022-10-17T03:16:18.602Z,101269.63
2022-10-17T03:18:48.020Z,101268.66
2022-10-17T03:21:17.062Z,101267.59
2022-10-17T03:23:44.099Z,101275.31
2022-10-17T03:26:11.253Z,101263.72
2022-10-17T03:28:38.446Z,101265.13
2022-10-17T03:31:16.950Z,101263.41
2022-10-17T03:33:43.891Z,101261.19
2022-10-17T03:36:14.772Z,101265.75
2022-10-17T03:38:42.569Z,101269.25
2022-10-17T03:41:09.812Z,101271.31
2022-10-17T03:43:37.392Z,101260.72
2022-10-17T03:46:04.762Z,101254.47
2022-10-17T03:48:33.225Z,101252.75
2022-10-17T03:51:07.176Z,101260.53
2022-10-17T03:53:35.149Z,101263.22
2022-10-17T03:56:23.250Z,101268.69
2022-10-17T03:58:50.291Z,101275.84
2022-10-17T04:01:19.483Z,101272.19
2022-10-17T04:03:54.760Z,101276.63
2022-10-17T04:06:22.754Z,101289.28
2022-10-17T04:08:50.389Z,101282.31
2022-10-17T04:11:20.861Z,101291.94
2022-10-17T04:13:52.306Z,101290.81
2022-10-17T04:16:19.223Z,101292.94
2022-10-17T04:18:46.323Z,101296.69
2022-10-17T04:21:13.790Z,101293.06
2022-10-17T04:23:40.755Z,101296.53
2022-10-17T04:26:07.829Z,101290.28
2022-10-17T04:28:35.921Z,101284.13
2022-10-17T04:31:09.826Z,101278.59
2022-10-17T04:33:36.748Z,101284.97
2022-10-17T04:36:07.800Z,101284.91
2022-10-17T04:38:35.142Z,101298.19
2022-10-17T04:41:06.511Z,101287.44
2022-10-17T04:43:36.474Z,101300.06
2022-10-17T04:46:10.106Z,101303.13
2022-10-17T04:48:37.481Z,101311.00
2022-10-17T04:51:08.913Z,101313.13
2022-10-17T04:53:38.627Z,101321.38
2022-10-17T04:56:18.151Z,101325.28
2022-10-17T04:58:46.187Z,101324.75
2022-10-17T05:01:17.475Z,101327.59
2022-10-17T05:03:44.945Z,101325.75
2022-10-17T05:06:19.127Z,101341.03
2022-10-17T05:08:46.994Z,101338.41
2022-10-17T05:11:36.792Z,101339.34
2022-10-17T05:14:03.791Z,101349.50
2022-10-17T05:16:31.011Z,101341.97
2022-10-17T05:18:59.359Z,101325.44
2022-10-17T05:21:28.793Z,101328.44
2022-10-17T05:23:55.839Z,101336.53
2022-10-17T05:26:23.624Z,101342.44
2022-10-17T05:28:52.563Z,101345.66
2022-10-17T05:31:19.666Z,101356.72
2022-10-17T05:33:46.673Z,101375.41
2022-10-17T05:36:13.753Z,101370.25
2022-10-17T05:38:40.751Z,101382.84
2022-10-17T05:41:07.762Z,101384.38
2022-10-17T05:43:35.251Z,101392.50
2022-10-17T05:46:08.219Z,101395.88
2022-10-17T05:48:35.430Z,101388.72
2022-10-17T05:51:06.189Z,101385.84
2022-10-17T05:53:36.473Z,101385.28
2022-10-17T05:56:07.030Z,101387.63
2022-10-17T05:58:49.787Z,101390.13
2022-10-17T06:01:17.907Z,101380.91
2022-10-17T06:03:45.038Z,101380.72
2022-10-17T06:06:14.026Z,101397.09
2022-10-17T06:08:41.109Z,101398.31
2022-10-17T06:11:10.163Z,101398.44
2022-10-17T06:13:38.815Z,101402.28
2022-10-17T06:16:06.617Z,101407.06
2022-10-17T06:18:33.769Z,101398.44
2022-10-17T06:21:10.283Z,101403.22
2022-10-17T06:23:37.886Z,101401.50
2022-10-17T06:26:07.685Z,101409.09
2022-10-17T06:28:36.279Z,101407.31
2022-10-17T06:31:08.842Z,101420.50
2022-10-17T06:33:36.240Z,101421.22
2022-10-17T06:36:04.942Z,101427.81
2022-10-17T06:38:32.260Z,101417.97
2022-10-17T06:41:15.432Z,101420.84
2022-10-17T06:43:46.405Z,101417.97
2022-10-17T06:46:16.827Z,101438.63
2022-10-17T06:48:44.099Z,101432.81
2022-10-17T06:51:11.911Z,101441.97
2022-10-17T06:53:40.842Z,101431.25
2022-10-17T06:56:10.308Z,101439.34
2022-10-17T06:58:40.920Z,101428.59
2022-10-17T07:01:13.660Z,101426.72
2022-10-17T07:03:41.368Z,101432.78
2022-10-17T07:06:10.847Z,101436.34
2022-10-17T07:08:38.187Z,101437.09
2022-10-17T07:11:17.030Z,101440.47
2022-10-17T07:13:44.334Z,101440.50
2022-10-17T07:16:12.688Z,101443.00
2022-10-17T07:18:40.350Z,101444.09
2022-10-17T07:21:08.809Z,101432.50
2022-10-17T07:23:37.228Z,101433.41
2022-10-17T07:26:09.346Z,101430.88
2022-10-17T07:28:38.868Z,101435.34
2022-10-17T07:31:13.459Z,101441.00
2022-10-17T07:33:41.204Z,101440.19
2022-10-17T07:36:08.425Z,101452.72
2022-10-17T07:38:37.055Z,101449.16
2022-10-17T07:41:07.626Z,101459.00
2022-10-17T07:43:36.190Z,101462.66
2022-10-17T07:46:05.862Z,101459.91
2022-10-17T07:48:32.955Z,101457.06
2022-10-17T07:51:04.004Z,101455.28
2022-10-17T07:53:30.987Z,101467.81
2022-10-17T07:55:58.724Z,101466.88
2022-10-17T07:58:25.987Z,101475.72
2022-10-17T08:00:53.120Z,101479.44
2022-10-17T08:03:20.100Z,101476.56
2022-10-17T08:05:47.067Z,101475.91
2022-10-17T08:08:14.032Z,101480.50
2022-10-17T08:10:40.982Z,101479.34
2022-10-17T08:13:07.911Z,101488.50
2022-10-17T08:15:38.372Z,101496.78
2022-10-17T08:18:05.327Z,101493.19
2022-10-17T08:20:32.245Z,101493.19
2022-10-17T08:22:59.167Z,101482.34
2022-10-17T08:25:26.219Z,101490.34
2022-10-17T08:27:53.147Z,101482.44
2022-10-17T08:30:20.397Z,101489.59
2022-10-17T08:32:47.382Z,101488.81
2022-10-17T08:35:14.872Z,101477.84
2022-10-17T08:37:41.984Z,101473.69
2022-10-17T08:40:21.011Z,101480.34
2022-10-17T08:43:21.400Z,101473.84
2022-10-17T08:46:00.427Z,101478.66
2022-10-17T08:48:31.673Z,101467.81
2022-10-17T08:51:11.222Z,101473.44
2022-10-17T08:54:14.991Z,101468.44
2022-10-17T08:56:50.098Z,101461.69
2022-10-17T08:59:29.439Z,101464.38
2022-10-17T09:02:18.536Z,101469.47
2022-10-17T09:05:09.503Z,101463.53
2022-10-17T09:08:17.630Z,101461.91
2022-10-17T09:11:12.694Z,101461.81
2022-10-17T09:13:50.104Z,101455.25
2022-10-17T09:16:37.347Z,101467.72
2022-10-17T09:19:34.364Z,101451.53
2022-10-17T09:22:12.567Z,101460.66
2022-10-17T09:24:52.966Z,101457.41
2022-10-17T09:27:46.661Z,101453.31
2022-10-17T09:30:50.541Z,101457.09
2022-10-17T09:33:35.595Z,101451.84
2022-10-17T09:36:20.885Z,101446.25
2022-10-17T09:38:58.359Z,101450.59
2022-10-17T09:41:48.267Z,101444.69
2022-10-17T09:44:22.023Z,101445.00
2022-10-17T09:47:30.060Z,101448.69
2022-10-17T09:49:57.658Z,101453.81
2022-10-17T09:52:34.101Z,101441.03
2022-10-17T09:55:45.973Z,101449.66
2022-10-17T09:58:13.093Z,101442.94
2022-10-17T10:00:48.945Z,101439.84
2022-10-17T10:03:25.450Z,101429.47
2022-10-17T10:06:06.065Z,101432.41
2022-10-17T10:08:58.693Z,101430.78
2022-10-17T10:11:58.058Z,101427.06
2022-10-17T10:14:39.651Z,101432.03
2022-10-17T10:17:34.636Z,101435.34
2022-10-17T10:20:06.689Z,101425.06
2022-10-17T10:22:33.630Z,101420.00
2022-10-17T10:25:17.768Z,101416.44
2022-10-17T10:27:46.830Z,101418.22
2022-10-17T10:30:27.792Z,101423.69
2022-10-17T10:32:57.077Z,101427.88
2022-10-17T10:35:37.360Z,101423.16
2022-10-17T10:38:17.076Z,101427.41
2022-10-17T10:40:54.608Z,101429.34
2022-10-17T10:43:38.163Z,101425.69
2022-10-17T10:46:16.943Z,101420.00
2022-10-17T10:48:53.148Z,101424.34
2022-10-17T10:51:47.520Z,101422.03
2022-10-17T10:54:31.055Z,101419.22
2022-10-17T10:57:03.511Z,101420.38
2022-10-17T10:59:48.825Z,101412.69
2022-10-17T11:02:40.379Z,101417.38
2022-10-17T11:05:20.827Z,101413.63
2022-10-17T11:07:52.883Z,101414.09
2022-10-17T11:10:35.730Z,101417.47
2022-10-17T11:13:31.659Z,101410.94
2022-10-17T11:16:44.888Z,101414.53
2022-10-17T11:19:51.898Z,101410.97
2022-10-17T11:22:47.084Z,101402.28
2022-10-17T11:25:28.056Z,101419.22
2022-10-17T11:27:55.235Z,101413.81
2022-10-17T11:30:27.011Z,101421.00
2022-10-17T11:32:59.876Z,101413.16
2022-10-17T11:35:40.435Z,101420.66
2022-10-17T11:39:11.873Z,101415.47
2022-10-17T11:41:59.817Z,101416.22
2022-10-17T11:44:39.718Z,101416.34
2022-10-17T11:47:48.191Z,101419.03
2022-10-17T11:53:32.154Z,101418.66
2022-10-17T11:56:00.405Z,101422.66
2022-10-17T11:59:00.359Z,101418.91
2022-10-17T12:01:48.893Z,101424.91
2022-10-17T12:04:49.811Z,101421.75
2022-10-17T12:07:37.048Z,101422.75
2022-10-17T12:10:43.875Z,101424.72
2022-10-17T12:13:29.012Z,101413.94
2022-10-17T12:15:58.050Z,101424.00
2022-10-17T12:18:29.526Z,101425.78
2022-10-17T12:20:58.863Z,101411.47
2022-10-17T12:23:31.673Z,101403.38
2022-10-17T12:26:05.352Z,101402.44
2022-10-17T12:28:44.477Z,101403.34
2022-10-17T12:31:17.532Z,101397.97
2022-10-17T12:34:02.974Z,101394.34
2022-10-17T12:36:29.779Z,101401.56
2022-10-17T12:39:02.393Z,101391.59
2022-10-17T12:41:41.467Z,101393.50
2022-10-17T12:44:14.311Z,101383.69
2022-10-17T12:46:47.629Z,101387.25
2022-10-17T12:49:53.142Z,101377.41
2022-10-17T12:52:29.759Z,101372.00
2022-10-17T12:55:14.082Z,101370.19
2022-10-17T12:58:02.898Z,101367.47
2022-10-17T13:01:18.807Z,101366.59
2022-10-17T13:03:50.421Z,101371.97
2022-10-17T13:06:29.427Z,101369.31
2022-10-17T13:09:07.719Z,101369.34
2022-10-17T13:11:37.862Z,101371.16
2022-10-17T13:14:15.255Z,101378.31
2022-10-17T13:16:57.482Z,101381.03
2022-10-17T13:19:30.118Z,101377.47
2022-10-17T13:22:06.326Z,101366.69
2022-10-17T13:24:41.193Z,101362.13
2022-10-17T13:27:34.660Z,101369.34
2022-10-17T13:30:23.413Z,101374.78
2022-10-17T13:32:52.390Z,101374.69
2022-10-17T13:35:58.898Z,101361.28
2022-10-17T13:38:28.853Z,101363.03
2022-10-17T13:41:01.979Z,101364.78
2022-10-17T13:43:33.100Z,101360.34
2022-10-17T13:46:25.345Z,101352.25
2022-10-17T13:48:52.651Z,101352.25
2022-10-17T13:51:20.211Z,101358.53
2022-10-17T13:53:47.165Z,101357.63
2022-10-17T13:56:28.318Z,101360.22
2022-10-17T13:59:23.973Z,101355.81
2022-10-17T14:01:52.265Z,101353.13
2022-10-17T14:04:20.413Z,101349.53
2022-10-17T14:06:49.655Z,101342.41
2022-10-17T14:09:26.008Z,101340.56
2022-10-17T14:12:16.590Z,101342.34
2022-10-17T14:15:09.764Z,101349.53
2022-10-17T14:17:38.580Z,101349.50
2022-10-17T14:20:43.368Z,101342.34
2022-10-17T14:23:21.425Z,101336.06
2022-10-17T14:25:43.606Z,101336.97
2022-10-17T14:28:14.580Z,101337.78
2022-10-17T14:31:02.975Z,101341.38
2022-10-17T14:33:33.389Z,101323.44
2022-10-17T14:36:02.955Z,101328.00
2022-10-17T14:38:30.735Z,101325.28
2022-10-17T14:41:41.335Z,101322.53
2022-10-17T14:44:08.115Z,101325.22
2022-10-17T14:46:36.611Z,101318.06
2022-10-17T14:49:19.378Z,101323.41
2022-10-17T14:52:26.440Z,101315.25
2022-10-17T14:54:53.703Z,101327.78
2022-10-17T14:57:50.127Z,101331.34
2022-10-17T15:00:19.746Z,101328.66
2022-10-17T15:02:48.512Z,101334.97
2022-10-17T15:05:16.302Z,101327.78
2022-10-17T15:07:43.701Z,101333.09
2022-10-17T15:10:33.918Z,101321.50
2022-10-17T15:15:52.014Z,101324.06
2022-10-17T15:18:19.624Z,101326.78
2022-10-17T15:20:46.623Z,101324.03
2022-10-17T15:23:13.590Z,101330.25
2022-10-17T15:25:40.607Z,101317.75
2022-10-17T15:28:08.107Z,101321.28
2022-10-17T15:30:36.758Z,101327.56
2022-10-17T15:33:04.090Z,101333.72
2022-10-17T15:35:31.370Z,101328.34
2022-10-17T15:37:58.485Z,101329.13
2022-10-17T15:40:29.345Z,101323.84
2022-10-17T15:42:57.042Z,101328.22
2022-10-17T15:45:24.650Z,101327.38
2022-10-17T15:47:56.275Z,101325.53
2022-10-17T15:50:23.357Z,101319.13
2022-10-17T15:52:51.083Z,101334.34
2022-10-17T15:55:18.581Z,101331.78
2022-10-17T15:57:47.786Z,101333.50
2022-10-17T16:00:19.457Z,101323.50
2022-10-17T16:02:47.055Z,101316.34
2022-10-17T16:05:25.560Z,101313.56
2022-10-17T16:07:53.974Z,101319.75
2022-10-17T16:10:23.033Z,101323.38
2022-10-17T16:12:50.435Z,101325.13
2022-10-17T16:15:23.007Z,101313.47
2022-10-17T16:17:55.937Z,101316.19
2022-10-17T16:20:25.442Z,101319.81
2022-10-17T16:22:59.762Z,101309.97
2022-10-17T16:25:29.702Z,101310.00
2022-10-17T16:28:00.170Z,101313.53
2022-10-17T16:30:29.943Z,101308.06
2022-10-17T16:32:57.172Z,101299.16
2022-10-17T16:35:33.250Z,101300.91
2022-10-17T16:38:04.649Z,101301.88
2022-10-17T16:40:31.664Z,101306.03
2022-10-17T16:42:58.648Z,101296.25
2022-10-17T16:45:25.582Z,101299.94
2022-10-17T16:47:53.344Z,101300.97
2022-10-17T16:50:20.685Z,101302.59
2022-10-17T16:52:47.751Z,101303.38
2022-10-17T16:55:14.898Z,101306.88
2022-10-17T17:00:17.437Z,101298.69
2022-10-17T17:02:47.140Z,101296.97
2022-10-17T17:05:14.228Z,101304.09
2022-10-17T17:07:41.181Z,101295.91
2022-10-17T17:10:08.789Z,101300.66
2022-10-17T17:12:36.533Z,101303.06
2022-10-17T17:15:04.483Z,101305.78
2022-10-17T17:17:49.310Z,101299.38
2022-10-17T17:20:17.330Z,101302.75
2022-10-17T17:22:44.250Z,101298.22
2022-10-17T17:25:11.153Z,101302.13
2022-10-17T17:27:38.125Z,101296.53
2022-10-17T17:30:05.688Z,101298.22
2022-10-17T17:32:33.157Z,101300.25
2022-10-17T17:35:00.282Z,101291.13
2022-10-17T17:37:27.394Z,101297.41
2022-10-17T17:39:54.400Z,101300.78
2022-10-17T17:42:21.316Z,101297.47
2022-10-17T17:44:49.895Z,101294.72
2022-10-17T17:47:16.911Z,101293.81
2022-10-17T17:49:43.893Z,101296.25
2022-10-17T17:52:10.902Z,101301.53
2022-10-17T17:54:40.782Z,101293.56
2022-10-17T17:57:08.202Z,101294.44
2022-10-17T17:59:35.255Z,101289.84
2022-10-17T18:02:02.955Z,101302.34
2022-10-17T18:04:30.009Z,101296.00
2022-10-17T18:06:56.955Z,101296.75
2022-10-17T18:09:24.140Z,101297.69
2022-10-17T18:11:51.158Z,101304.78
2022-10-17T18:14:19.245Z,101300.22
2022-10-17T18:16:46.214Z,101296.75
2022-10-17T18:19:13.257Z,101297.47
2022-10-17T18:21:40.254Z,101296.53
2022-10-17T18:24:07.908Z,101293.06
2022-10-17T18:26:35.067Z,101301.97
2022-10-17T18:29:02.606Z,101297.41
2022-10-17T18:31:32.273Z,101301.00
2022-10-17T18:34:02.800Z,101296.56
2022-10-17T18:36:31.396Z,101294.66
2022-10-17T18:39:00.590Z,101295.53
2022-10-17T18:41:28.423Z,101288.44
2022-10-17T18:43:56.737Z,101286.81
2022-10-17T18:46:30.359Z,101277.72
2022-10-17T18:48:57.511Z,101281.22
2022-10-17T18:51:26.016Z,101275.72
2022-10-17T18:53:56.396Z,101287.22
2022-10-17T18:56:24.042Z,101289.00
2022-10-17T18:58:51.742Z,101289.94
2022-10-17T19:01:22.202Z,101288.16
2022-10-17T19:03:51.593Z,101282.88
2022-10-17T19:06:22.082Z,101277.47
2022-10-17T19:08:49.644Z,101271.03
2022-10-17T19:11:22.250Z,101277.38
2022-10-17T19:13:50.197Z,101282.66
2022-10-17T19:16:21.367Z,101277.16
2022-10-17T19:18:54.173Z,101271.97
2022-10-17T19:21:22.424Z,101267.31
2022-10-17T19:24:02.339Z,101268.25
2022-10-17T19:26:33.484Z,101259.47
2022-10-17T19:29:00.726Z,101270.94
2022-10-17T19:31:31.711Z,101270.00
2022-10-17T19:34:00.003Z,101257.41
2022-10-17T19:36:33.615Z,101257.25
2022-10-17T19:39:04.145Z,101261.63
2022-10-17T19:41:31.831Z,101261.56
2022-10-17T19:44:00.189Z,101266.38
2022-10-17T19:46:29.435Z,101264.50
2022-10-17T19:48:56.584Z,101254.31
2022-10-17T19:51:25.153Z,101259.94
2022-10-17T19:53:54.399Z,101260.38
2022-10-17T19:56:23.729Z,101254.41
2022-10-17T19:58:51.932Z,101262.25
2022-10-17T20:01:32.171Z,101252.53
2022-10-17T20:03:59.335Z,101251.56
2022-10-17T20:06:26.558Z,101253.91
2022-10-17T20:08:54.008Z,101250.13
2022-10-17T20:11:27.854Z,101246.03
2022-10-17T20:13:56.178Z,101250.16
2022-10-17T20:16:27.925Z,101242.59
2022-10-17T20:19:10.039Z,101243.88
2022-10-17T20:21:39.623Z,101241.09
2022-10-17T20:24:09.609Z,101232.28
2022-10-17T20:26:38.511Z,101232.94
2022-10-17T20:29:12.518Z,101228.38
2022-10-17T20:31:41.258Z,101238.09
2022-10-17T20:34:11.294Z,101231.91
2022-10-17T20:36:38.208Z,101227.88
2022-10-17T20:39:07.248Z,101232.75
2022-10-17T20:41:34.903Z,101214.75
2022-10-17T20:44:02.016Z,101215.78
2022-10-17T20:46:36.723Z,101221.25
2022-10-17T20:49:06.729Z,101218.66
2022-10-17T20:51:35.318Z,101213.91
2022-10-17T20:54:03.107Z,101221.09
2022-10-17T20:56:33.880Z,101195.91
2022-10-17T20:59:04.477Z,101203.03
2022-10-17T21:01:34.502Z,101209.06
2022-10-17T21:04:21.462Z,101196.75
2022-10-17T21:06:51.294Z,101209.75
2022-10-17T21:09:18.574Z,101206.22
2022-10-17T21:11:45.687Z,101206.22
2022-10-17T21:14:12.844Z,101207.69
2022-10-17T21:16:41.321Z,101209.75
2022-10-17T21:19:10.832Z,101201.56
2022-10-17T21:21:41.770Z,101201.75
2022-10-17T21:24:14.289Z,101196.88
2022-10-17T21:26:43.536Z,101200.53
2022-10-17T21:29:13.369Z,101197.06
2022-10-17T21:31:44.695Z,101192.41
2022-10-17T21:34:17.523Z,101187.72
2022-10-17T21:36:45.173Z,101179.75
2022-10-17T21:39:13.479Z,101184.38
2022-10-17T21:41:41.552Z,101190.41
2022-10-17T21:44:14.931Z,101191.25
2022-10-17T21:46:42.934Z,101187.88
2022-10-17T21:49:12.917Z,101186.78
2022-10-17T21:51:40.353Z,101173.91
2022-10-17T21:54:08.206Z,101183.13
2022-10-17T21:56:36.408Z,101178.97
2022-10-17T21:59:04.943Z,101180.25
2022-10-17T22:01:36.193Z,101186.56
2022-10-17T22:04:06.004Z,101185.81
2022-10-17T22:06:40.833Z,101188.75
2022-10-17T22:09:26.195Z,101174.94
2022-10-17T22:11:56.591Z,101167.22
2022-10-17T22:14:27.070Z,101179.97
2022-10-17T22:16:54.782Z,101185.41
2022-10-17T22:19:25.670Z,101183.56
2022-10-17T22:21:53.837Z,101179.09
2022-10-17T22:26:53.878Z,101177.84
2022-10-17T22:29:21.309Z,101183.22
2022-10-17T22:31:48.256Z,101175.88
2022-10-17T22:34:17.300Z,101177.75
2022-10-17T22:36:44.813Z,101172.50
2022-10-17T22:39:11.763Z,101173.09
2022-10-17T22:41:38.918Z,101165.97
2022-10-17T22:44:06.128Z,101169.50
2022-10-17T22:46:33.284Z,101169.81
2022-10-17T22:49:00.262Z,101170.59
2022-10-17T22:51:27.780Z,101172.81
2022-10-17T22:53:54.900Z,101179.06
2022-10-17T22:56:22.904Z,101165.47
2022-10-17T22:58:50.582Z,101183.56
2022-10-17T23:01:22.354Z,101179.22
2022-10-17T23:03:50.378Z,101174.56
2022-10-17T23:06:18.181Z,101172.75
2022-10-17T23:08:45.597Z,101178.34
2022-10-17T23:11:13.115Z,101182.56
2022-10-17T23:13:41.022Z,101176.41
2022-10-17T23:16:09.245Z,101171.78
2022-10-17T23:18:38.446Z,101176.56
2022-10-17T23:21:06.451Z,101175.97
2022-10-17T23:23:33.540Z,101178.09
2022-10-17T23:26:13.656Z,101181.44
2022-10-17T23:28:41.983Z,101185.84
2022-10-17T23:31:19.678Z,101177.69
2022-10-17T23:33:48.970Z,101184.09
2022-10-17T23:36:20.114Z,101180.50
2022-10-17T23:38:48.292Z,101174.50
2022-10-17T23:41:16.191Z,101169.63
2022-10-17T23:43:44.137Z,101179.91
2022-10-17T23:46:11.117Z,101159.31
2022-10-17T23:48:39.008Z,101164.41
2022-10-17T23:51:07.774Z,101168.75
2022-10-17T23:53:36.086Z,101168.31
2022-10-17T23:56:03.783Z,101173.25
2022-10-17T23:58:31.047Z,101166.34
